createdAt,value
2018-06-21T00:02:02.236Z,4.97
2018-06-21T00:04:31.325Z,3.73
2018-06-21T00:07:00.421Z,4.43
2018-06-21T00:09:29.537Z,3.67
2018-06-21T00:11:58.625Z,5.70
2018-06-21T00:14:27.709Z,6.67
2018-06-21T00:16:56.937Z,3.33
2018-06-21T00:19:26.104Z,3.87
2018-06-21T00:21:55.212Z,6.73
2018-06-21T00:24:24.749Z,3.63
2018-06-21T00:26:53.954Z,5.63
2018-06-21T00:29:23.097Z,5.77
2018-06-21T00:31:52.164Z,5.87
2018-06-21T00:34:21.586Z,5.07
2018-06-21T00:36:50.727Z,5.70
2018-06-21T00:39:19.881Z,4.27
2018-06-21T00:41:48.976Z,5.43
2018-06-21T00:44:18.073Z,6.23
2018-06-21T00:46:47.165Z,6.90
2018-06-21T00:49:16.258Z,5.90
2018-06-21T00:51:45.353Z,4.30
2018-06-21T00:54:14.517Z,5.27
2018-06-21T00:56:43.689Z,4.20
2018-06-21T00:59:12.970Z,5.60
2018-06-21T01:01:42.122Z,4.53
2018-06-21T01:04:11.227Z,4.70
2018-06-21T01:06:40.317Z,8.20
2018-06-21T01:09:09.458Z,6.23
2018-06-21T01:11:38.559Z,5.53
2018-06-21T01:14:07.637Z,6.50
2018-06-21T01:16:36.777Z,6.70
2018-06-21T01:19:05.898Z,6.03
2018-06-21T01:21:35.178Z,6.90
2018-06-21T01:24:04.634Z,5.10
2018-06-21T01:26:33.725Z,8.23
2018-06-21T01:29:02.807Z,7.77
2018-06-21T01:31:31.898Z,6.77
2018-06-21T01:34:00.985Z,8.53
2018-06-21T01:36:30.173Z,8.87
2018-06-21T01:38:59.309Z,6.57
2018-06-21T01:41:28.526Z,5.60
2018-06-21T01:43:58.344Z,7.37
2018-06-21T01:46:27.434Z,7.03
2018-06-21T01:48:56.545Z,8.33
2018-06-21T01:51:25.712Z,9.67
2018-06-21T01:53:55.014Z,5.80
2018-06-21T01:56:24.221Z,8.70
2018-06-21T01:58:53.314Z,6.40
2018-06-21T02:01:22.405Z,9.63
2018-06-21T02:03:51.501Z,7.83
2018-06-21T02:06:20.605Z,6.30
2018-06-21T02:08:49.710Z,8.77
2018-06-21T02:11:19.377Z,7.43
2018-06-21T02:13:48.490Z,9.43
2018-06-21T02:16:17.922Z,5.00
2018-06-21T02:18:47.138Z,8.20
2018-06-21T02:21:16.309Z,8.47
2018-06-21T02:23:45.449Z,6.67
2018-06-21T02:26:14.562Z,5.93
2018-06-21T02:28:43.697Z,8.33
2018-06-21T02:31:12.986Z,9.87
2018-06-21T02:33:42.105Z,4.87
2018-06-21T02:36:11.374Z,6.73
2018-06-21T02:38:40.603Z,6.17
2018-06-21T02:41:09.805Z,7.97
2018-06-21T02:43:38.931Z,11.17
2018-06-21T02:46:08.013Z,6.50
2018-06-21T02:48:37.131Z,5.43
2018-06-21T02:51:06.291Z,7.90
2018-06-21T02:53:35.465Z,6.53
2018-06-21T02:56:04.577Z,7.23
2018-06-21T02:58:33.785Z,7.17
2018-06-21T03:01:02.898Z,5.97
2018-06-21T03:03:31.981Z,6.87
2018-06-21T03:06:01.079Z,6.70
2018-06-21T03:08:30.339Z,5.30
2018-06-21T03:10:59.554Z,9.30
2018-06-21T03:13:28.750Z,6.07
2018-06-21T03:15:57.973Z,6.33
2018-06-21T03:18:27.165Z,7.17
2018-06-21T03:20:56.286Z,8.40
2018-06-21T03:23:25.393Z,6.33
2018-06-21T03:25:54.578Z,8.30
2018-06-21T03:28:23.669Z,5.43
2018-06-21T03:30:52.774Z,8.37
2018-06-21T03:33:21.861Z,7.03
2018-06-21T03:35:50.957Z,5.90
2018-06-21T03:38:20.037Z,7.50
2018-06-21T03:40:49.563Z,6.20
2018-06-21T03:43:18.642Z,7.37
2018-06-21T03:45:47.741Z,4.30
2018-06-21T03:48:16.820Z,6.23
2018-06-21T03:50:45.965Z,7.30
2018-06-21T03:53:15.089Z,7.23
2018-06-21T03:55:44.173Z,8.60
2018-06-21T03:58:13.365Z,8.63
2018-06-21T04:00:42.519Z,7.87
2018-06-21T04:03:11.905Z,7.67
2018-06-21T04:05:41.097Z,10.37
2018-06-21T04:08:10.277Z,10.40
2018-06-21T04:10:39.370Z,8.73
2018-06-21T04:13:08.453Z,8.17
2018-06-21T04:15:37.655Z,9.17
2018-06-21T04:18:06.799Z,8.13
2018-06-21T04:20:36.466Z,9.83
2018-06-21T04:23:06.184Z,9.60
2018-06-21T04:25:35.358Z,10.73
2018-06-21T04:28:04.453Z,6.50
2018-06-21T04:30:33.577Z,7.30
2018-06-21T04:33:03.300Z,7.60
2018-06-21T04:35:32.494Z,9.17
2018-06-21T04:38:01.574Z,12.23
2018-06-21T04:40:30.677Z,10.00
2018-06-21T04:42:59.841Z,7.83
2018-06-21T04:45:28.933Z,10.30
2018-06-21T04:47:58.029Z,13.03
2018-06-21T04:50:27.145Z,9.83
2018-06-21T04:52:56.269Z,10.30
2018-06-21T04:55:25.389Z,9.87
2018-06-21T04:57:54.553Z,10.63
2018-06-21T05:00:23.681Z,10.40
2018-06-21T05:02:52.776Z,12.17
2018-06-21T05:05:21.958Z,12.30
2018-06-21T05:07:51.057Z,11.67
2018-06-21T05:10:20.217Z,11.97
2018-06-21T05:12:49.309Z,10.23
2018-06-21T05:15:18.389Z,10.33
2018-06-21T05:17:47.517Z,8.67
2018-06-21T05:20:16.598Z,9.03
2018-06-21T05:22:45.709Z,9.30
2018-06-21T05:25:14.864Z,9.17
2018-06-21T05:27:43.882Z,6.80
2018-06-21T05:30:13.033Z,8.50
2018-06-21T05:32:42.129Z,8.93
2018-06-21T05:35:11.221Z,7.63
2018-06-21T05:37:40.330Z,8.40
2018-06-21T05:40:19.566Z,6.83
2018-06-21T05:42:48.645Z,7.80
2018-06-21T05:45:17.733Z,12.13
2018-06-21T05:47:46.842Z,8.30
2018-06-21T05:50:16.083Z,9.17
2018-06-21T05:52:45.114Z,7.00
2018-06-21T05:55:14.274Z,9.47
2018-06-21T05:57:43.570Z,6.80
2018-06-21T06:00:12.751Z,8.00
2018-06-21T06:02:41.882Z,6.90
2018-06-21T06:05:11.035Z,7.37
2018-06-21T06:07:40.133Z,9.30
2018-06-21T06:10:09.341Z,8.93
2018-06-21T06:12:38.352Z,9.43
2018-06-21T06:15:07.521Z,9.33
2018-06-21T06:17:36.678Z,8.03
2018-06-21T06:20:05.853Z,7.80
2018-06-21T06:22:34.935Z,10.33
2018-06-21T06:25:04.079Z,13.67
2018-06-21T06:27:33.266Z,10.80
2018-06-21T06:30:02.429Z,9.13
2018-06-21T06:32:31.518Z,10.73
2018-06-21T06:35:00.613Z,9.90
2018-06-21T06:37:29.722Z,11.83
2018-06-21T06:39:58.861Z,10.30
2018-06-21T06:42:28.026Z,10.33
2018-06-21T06:44:57.505Z,10.30
2018-06-21T06:47:27.265Z,18.07
2018-06-21T06:49:56.792Z,19.50
2018-06-21T06:52:25.986Z,18.90
2018-06-21T06:54:55.081Z,18.73
2018-06-21T06:57:24.249Z,16.43
2018-06-21T06:59:53.389Z,17.80
2018-06-21T07:02:22.506Z,16.17
2018-06-21T07:04:51.610Z,15.20
2018-06-21T07:07:20.897Z,15.47
2018-06-21T07:09:50.006Z,15.67
2018-06-21T07:12:19.129Z,12.70
2018-06-21T07:14:48.225Z,15.90
2018-06-21T07:17:17.341Z,14.53
2018-06-21T07:19:46.413Z,13.33
2018-06-21T07:22:15.513Z,15.30
2018-06-21T07:24:44.697Z,19.53
2018-06-21T07:27:13.915Z,17.93
2018-06-21T07:29:42.957Z,17.57
2018-06-21T07:32:12.094Z,17.37
2018-06-21T07:34:41.197Z,19.03
2018-06-21T07:37:10.294Z,18.80
2018-06-21T07:39:39.478Z,17.30
2018-06-21T07:42:08.658Z,17.13
2018-06-21T07:44:37.761Z,15.17
2018-06-21T07:47:06.857Z,15.80
2018-06-21T07:49:36.014Z,14.07
2018-06-21T07:52:05.192Z,15.83
2018-06-21T07:54:34.290Z,16.43
2018-06-21T07:57:03.386Z,16.73
2018-06-21T07:59:32.522Z,15.07
2018-06-21T08:02:01.610Z,20.00
2018-06-21T08:04:30.741Z,15.33
2018-06-21T08:06:59.845Z,15.80
2018-06-21T08:09:28.937Z,17.27
2018-06-21T08:11:58.097Z,17.83
2018-06-21T08:14:27.213Z,17.20
2018-06-21T08:16:56.334Z,17.13
2018-06-21T08:19:25.562Z,17.87
2018-06-21T08:21:54.657Z,18.83
2018-06-21T08:24:23.800Z,19.97
2018-06-21T08:26:52.896Z,17.70
2018-06-21T08:29:22.027Z,18.67
2018-06-21T08:31:51.198Z,17.47
2018-06-21T08:34:20.329Z,18.73
2018-06-21T08:36:49.425Z,17.33
2018-06-21T08:39:18.525Z,17.87
2018-06-21T08:41:47.633Z,16.93
2018-06-21T08:44:16.725Z,17.80
2018-06-21T08:46:45.882Z,20.60
2018-06-21T08:49:15.049Z,16.37
2018-06-21T08:51:44.241Z,17.20
2018-06-21T08:54:13.352Z,21.10
2018-06-21T08:56:42.458Z,18.67
2018-06-21T08:59:11.602Z,14.97
2018-06-21T09:01:40.807Z,19.20
2018-06-21T09:04:09.901Z,18.47
2018-06-21T09:06:39.027Z,16.90
2018-06-21T09:09:09.089Z,15.03
2018-06-21T09:11:38.355Z,15.00
2018-06-21T09:14:07.469Z,9.13
2018-06-21T09:16:36.577Z,14.67
2018-06-21T09:19:05.689Z,13.30
2018-06-21T09:21:34.841Z,12.87
2018-06-21T09:24:04.025Z,23.43
2018-06-21T09:26:33.121Z,11.47
2018-06-21T09:29:02.202Z,9.40
2018-06-21T09:31:31.286Z,9.93
2018-06-21T09:34:00.381Z,11.23
2018-06-21T09:36:33.659Z,9.50
2018-06-21T09:39:07.851Z,13.87
2018-06-21T09:41:42.333Z,15.63
2018-06-21T09:44:16.816Z,8.43
2018-06-21T09:46:51.085Z,8.43
2018-06-21T09:49:20.229Z,9.40
2018-06-21T09:51:49.398Z,5.87
2018-06-21T09:54:18.502Z,11.23
2018-06-21T09:56:47.646Z,7.80
2018-06-21T09:59:16.830Z,12.20
2018-06-21T10:01:45.925Z,6.30
2018-06-21T10:04:15.105Z,8.57
2018-06-21T10:06:44.205Z,13.60
2018-06-21T10:09:13.321Z,9.13
2018-06-21T10:11:42.510Z,11.30
2018-06-21T10:14:11.597Z,13.30
2018-06-21T10:16:40.693Z,9.57
2018-06-21T10:19:09.881Z,8.43
2018-06-21T10:21:39.109Z,9.23
2018-06-21T10:24:08.193Z,7.20
2018-06-21T10:26:37.321Z,13.70
2018-06-21T10:29:06.489Z,6.53
2018-06-21T10:31:35.716Z,7.17
2018-06-21T10:34:04.805Z,9.50
2018-06-21T10:36:33.936Z,8.37
2018-06-21T10:39:03.153Z,7.77
2018-06-21T10:41:32.238Z,7.87
2018-06-21T10:44:01.334Z,12.07
2018-06-21T10:46:30.445Z,5.63
2018-06-21T10:48:59.605Z,9.23
2018-06-21T10:51:28.854Z,13.23
2018-06-21T10:53:57.989Z,7.27
2018-06-21T10:56:27.133Z,8.40
2018-06-21T10:58:56.275Z,9.23
2018-06-21T11:01:25.685Z,6.67
2018-06-21T11:03:54.881Z,6.53
2018-06-21T11:06:24.221Z,8.07
2018-06-21T11:08:53.373Z,12.03
2018-06-21T11:11:22.557Z,8.30
2018-06-21T11:13:51.742Z,16.63
2018-06-21T11:16:20.834Z,12.80
2018-06-21T11:18:49.946Z,12.80
2018-06-21T11:21:19.896Z,9.23
2018-06-21T11:23:49.034Z,10.70
2018-06-21T11:26:18.182Z,9.93
2018-06-21T11:28:47.454Z,14.87
2018-06-21T11:31:16.621Z,11.47
2018-06-21T11:33:45.733Z,13.17
2018-06-21T11:36:14.845Z,9.53
2018-06-21T11:38:43.981Z,10.83
2018-06-21T11:41:13.394Z,11.60
2018-06-21T11:43:42.490Z,9.07
2018-06-21T11:46:11.594Z,12.80
2018-06-21T11:48:40.923Z,7.93
2018-06-21T11:51:10.014Z,15.00
2018-06-21T11:53:39.138Z,8.90
2018-06-21T11:56:08.317Z,17.00
2018-06-21T11:58:37.413Z,7.77
2018-06-21T12:01:06.517Z,12.83
2018-06-21T12:03:35.654Z,12.80
2018-06-21T12:06:04.766Z,11.60
2018-06-21T12:08:33.888Z,14.17
2018-06-21T12:11:03.002Z,9.63
2018-06-21T12:13:32.116Z,8.67
2018-06-21T12:16:01.199Z,12.83
2018-06-21T12:18:30.301Z,11.70
2018-06-21T12:20:59.458Z,8.97
2018-06-21T12:23:28.565Z,11.30
2018-06-21T12:25:57.664Z,9.20
2018-06-21T12:28:26.812Z,7.90
2018-06-21T12:30:55.938Z,7.43
2018-06-21T12:33:25.078Z,10.80
2018-06-21T12:35:54.174Z,9.83
2018-06-21T12:38:23.347Z,10.80
2018-06-21T12:40:52.465Z,8.23
2018-06-21T12:43:21.618Z,7.73
2018-06-21T12:45:50.726Z,4.27
2018-06-21T12:48:19.817Z,9.87
2018-06-21T12:50:48.944Z,10.63
2018-06-21T12:53:18.074Z,7.37
2018-06-21T12:55:47.154Z,7.33
2018-06-21T12:58:16.306Z,10.60
2018-06-21T13:00:45.445Z,6.70
2018-06-21T13:03:14.595Z,12.53
2018-06-21T13:05:43.693Z,8.73
2018-06-21T13:08:18.502Z,11.67
2018-06-21T13:10:58.873Z,9.10
2018-06-21T13:13:28.395Z,6.23
2018-06-21T13:15:57.566Z,6.80
2018-06-21T13:18:26.682Z,8.70
2018-06-21T13:20:55.771Z,5.03
2018-06-21T13:23:28.485Z,6.27
2018-06-21T13:25:57.623Z,8.17
2018-06-21T13:28:26.801Z,8.30
2018-06-21T13:30:55.889Z,7.87
2018-06-21T13:33:24.999Z,7.40
2018-06-21T13:35:54.149Z,7.27
2018-06-21T13:38:23.253Z,5.83
2018-06-21T13:40:52.352Z,7.57
2018-06-21T13:43:21.436Z,6.07
2018-06-21T13:45:50.637Z,7.53
2018-06-21T13:48:19.725Z,10.67
2018-06-21T13:50:48.897Z,9.60
2018-06-21T13:53:18.026Z,10.10
2018-06-21T13:55:47.135Z,8.80
2018-06-21T13:58:16.287Z,9.57
2018-06-21T14:00:45.377Z,6.27
2018-06-21T14:03:14.485Z,7.40
2018-06-21T14:05:43.569Z,14.47
2018-06-21T14:08:12.715Z,16.70
2018-06-21T14:10:41.825Z,7.17
2018-06-21T14:13:10.926Z,7.27
2018-06-21T14:15:40.070Z,12.13
2018-06-21T14:18:09.281Z,9.50
2018-06-21T14:20:38.475Z,14.13
2018-06-21T14:23:07.509Z,9.17
2018-06-21T14:25:36.642Z,12.47
2018-06-21T14:28:05.781Z,5.23
2018-06-21T14:30:36.064Z,14.03
2018-06-21T14:33:09.432Z,11.00
2018-06-21T14:35:38.601Z,8.47
2018-06-21T14:38:07.753Z,7.20
2018-06-21T14:40:36.949Z,16.27
2018-06-21T14:43:06.488Z,11.50
2018-06-21T14:45:35.574Z,11.07
2018-06-21T14:48:04.867Z,8.67
2018-06-21T14:50:33.947Z,12.07
2018-06-21T14:53:03.137Z,12.53
2018-06-21T14:55:32.269Z,10.00
2018-06-21T14:58:01.608Z,9.97
2018-06-21T15:00:31.569Z,14.87
2018-06-21T15:03:00.778Z,14.40
2018-06-21T15:05:29.969Z,9.03
2018-06-21T15:07:59.131Z,16.70
2018-06-21T15:10:28.248Z,10.77
2018-06-21T15:12:57.438Z,10.33
2018-06-21T15:15:26.690Z,11.50
2018-06-21T15:17:55.785Z,8.90
2018-06-21T15:20:27.045Z,12.70
2018-06-21T15:22:56.189Z,10.53
2018-06-21T15:25:25.394Z,10.77
2018-06-21T15:27:55.636Z,13.83
2018-06-21T15:30:24.836Z,8.57
2018-06-21T15:32:53.977Z,10.90
2018-06-21T15:35:23.157Z,12.43
2018-06-21T15:37:52.339Z,10.17
2018-06-21T15:40:21.435Z,17.30
2018-06-21T15:42:50.590Z,11.40
2018-06-21T15:45:19.730Z,6.63
2018-06-21T15:47:48.765Z,10.53
2018-06-21T15:50:17.858Z,5.57
2018-06-21T15:52:47.318Z,9.90
2018-06-21T15:55:16.753Z,8.20
2018-06-21T15:57:45.849Z,8.93
2018-06-21T16:00:14.940Z,8.83
2018-06-21T16:02:44.137Z,7.47
2018-06-21T16:05:13.342Z,10.43
2018-06-21T16:07:42.425Z,11.53
2018-06-21T16:10:11.533Z,8.73
2018-06-21T16:12:40.638Z,12.23
2018-06-21T16:15:09.768Z,12.13
2018-06-21T16:17:38.986Z,7.80
2018-06-21T16:20:08.076Z,12.47
2018-06-21T16:22:37.207Z,9.23
2018-06-21T16:25:06.317Z,10.87
2018-06-21T16:27:35.401Z,9.10
2018-06-21T16:30:04.746Z,6.97
2018-06-21T16:32:33.899Z,7.67
2018-06-21T16:35:03.033Z,8.03
2018-06-21T16:37:32.185Z,8.23
2018-06-21T16:40:01.789Z,10.87
2018-06-21T16:42:31.131Z,7.97
2018-06-21T16:45:00.338Z,11.23
2018-06-21T16:47:29.508Z,8.03
2018-06-21T16:49:58.604Z,9.37
2018-06-21T16:52:27.849Z,15.47
2018-06-21T16:54:57.038Z,14.00
2018-06-21T16:57:26.155Z,8.97
2018-06-21T16:59:55.257Z,12.33
2018-06-21T17:02:24.406Z,9.83
2018-06-21T17:04:53.529Z,11.63
2018-06-21T17:07:22.645Z,8.90
2018-06-21T17:09:51.782Z,9.03
2018-06-21T17:12:20.898Z,8.33
2018-06-21T17:14:50.014Z,7.63
2018-06-21T17:17:19.146Z,6.30
2018-06-21T17:19:48.870Z,8.83
2018-06-21T17:22:18.017Z,14.60
2018-06-21T17:24:47.121Z,8.17
2018-06-21T17:27:16.333Z,7.40
2018-06-21T17:29:45.421Z,8.73
2018-06-21T17:32:14.533Z,7.07
2018-06-21T17:34:43.651Z,7.00
2018-06-21T17:37:12.786Z,9.27
2018-06-21T17:39:41.865Z,11.77
2018-06-21T17:42:10.954Z,9.10
2018-06-21T17:44:40.033Z,11.17
2018-06-21T17:47:09.165Z,9.53
2018-06-21T17:49:38.241Z,7.27
2018-06-21T17:52:07.375Z,6.07
2018-06-21T17:54:36.485Z,8.87
2018-06-21T17:57:05.621Z,8.60
2018-06-21T17:59:34.725Z,8.13
2018-06-21T18:02:03.926Z,14.40
2018-06-21T18:04:33.005Z,6.40
2018-06-21T18:07:02.137Z,7.67
2018-06-21T18:09:31.410Z,6.37
2018-06-21T18:12:00.553Z,8.57
2018-06-21T18:14:29.968Z,8.20
2018-06-21T18:16:59.069Z,5.67
2018-06-21T18:19:28.310Z,4.13
2018-06-21T18:21:57.437Z,4.03
2018-06-21T18:24:26.654Z,4.60
2018-06-21T18:26:55.760Z,8.07
2018-06-21T18:29:24.841Z,5.80
2018-06-21T18:31:54.381Z,3.70
2018-06-21T18:34:23.499Z,5.63
2018-06-21T18:36:52.603Z,5.80
2018-06-21T18:39:21.729Z,3.97
2018-06-21T18:41:50.813Z,2.73
2018-06-21T18:44:19.929Z,5.50
2018-06-21T18:46:49.021Z,2.73
2018-06-21T18:49:18.108Z,4.80
2018-06-21T18:51:47.194Z,5.30
2018-06-21T18:54:16.328Z,7.67
2018-06-21T18:56:45.451Z,7.77
2018-06-21T18:59:14.582Z,10.30
2018-06-21T19:01:43.729Z,8.43
2018-06-21T19:04:13.470Z,5.33
2018-06-21T19:06:49.453Z,8.37
2018-06-21T19:09:23.797Z,5.30
2018-06-21T19:11:55.748Z,4.37
2018-06-21T19:14:24.853Z,7.47
2018-06-21T19:16:53.949Z,4.90
2018-06-21T19:19:23.076Z,3.87
2018-06-21T19:21:52.230Z,9.50
2018-06-21T19:24:21.358Z,6.90
2018-06-21T19:26:50.453Z,7.87
2018-06-21T19:29:19.570Z,5.77
2018-06-21T19:31:48.653Z,9.97
2018-06-21T19:34:17.753Z,7.53
2018-06-21T19:36:46.837Z,8.33
2018-06-21T19:39:15.953Z,7.80
2018-06-21T19:41:45.086Z,8.73
2018-06-21T19:44:14.163Z,4.47
2018-06-21T19:46:43.253Z,4.80
2018-06-21T19:49:12.425Z,7.83
2018-06-21T19:51:41.702Z,6.37
2018-06-21T19:54:10.976Z,6.57
2018-06-21T19:56:40.050Z,6.50
2018-06-21T19:59:09.155Z,5.90
2018-06-21T20:01:38.225Z,5.90
2018-06-21T20:04:07.318Z,8.37
2018-06-21T20:06:36.462Z,8.37
2018-06-21T20:09:08.173Z,6.70
2018-06-21T20:11:38.345Z,8.17
2018-06-21T20:14:07.431Z,6.83
2018-06-21T20:16:36.525Z,5.33
2018-06-21T20:19:10.086Z,13.07
2018-06-21T20:21:39.248Z,6.73
2018-06-21T20:24:08.634Z,10.73
2018-06-21T20:26:37.734Z,15.23
2018-06-21T20:29:12.145Z,8.30
2018-06-21T20:31:41.541Z,10.87
2018-06-21T20:34:10.690Z,8.57
2018-06-21T20:36:39.805Z,13.10
2018-06-21T20:39:10.276Z,8.67
2018-06-21T20:41:39.380Z,9.47
2018-06-21T20:44:08.514Z,10.90
2018-06-21T20:46:37.578Z,10.03
2018-06-21T20:49:06.705Z,10.07
2018-06-21T20:51:35.792Z,7.47
2018-06-21T20:54:04.945Z,10.53
2018-06-21T20:56:34.099Z,12.80
2018-06-21T20:59:03.225Z,8.90
2018-06-21T21:01:32.296Z,10.23
2018-06-21T21:04:01.362Z,7.23
2018-06-21T21:06:30.409Z,14.40
2018-06-21T21:08:59.474Z,11.60
2018-06-21T21:11:28.513Z,11.60
2018-06-21T21:13:57.569Z,11.87
2018-06-21T21:16:26.625Z,13.57
2018-06-21T21:18:55.713Z,13.70
2018-06-21T21:21:24.757Z,9.03
2018-06-21T21:23:53.898Z,13.90
2018-06-21T21:26:23.487Z,14.23
2018-06-21T21:28:52.653Z,16.47
2018-06-21T21:31:21.705Z,7.50
2018-06-21T21:33:50.799Z,11.03
2018-06-21T21:36:19.877Z,9.23
2018-06-21T21:38:49.612Z,9.67
2018-06-21T21:41:18.682Z,8.77
2018-06-21T21:43:47.838Z,8.30
2018-06-21T21:46:16.897Z,6.60
2018-06-21T21:48:46.076Z,11.77
2018-06-21T21:51:15.169Z,7.53
2018-06-21T21:53:44.596Z,7.83
2018-06-21T21:56:13.669Z,8.43
2018-06-21T21:58:42.717Z,11.97
2018-06-21T22:01:11.791Z,10.53
2018-06-21T22:03:40.841Z,7.77
2018-06-21T22:06:09.889Z,9.53
2018-06-21T22:08:39.069Z,7.90
2018-06-21T22:11:08.139Z,6.13
2018-06-21T22:13:37.193Z,7.13
2018-06-21T22:16:06.253Z,9.30
2018-06-21T22:18:35.301Z,9.80
2018-06-21T22:21:04.345Z,8.50
2018-06-21T22:23:33.402Z,7.20
2018-06-21T22:26:02.441Z,7.03
2018-06-21T22:28:31.516Z,9.37
2018-06-21T22:31:00.565Z,8.90
2018-06-21T22:33:29.879Z,9.83
2018-06-21T22:35:58.984Z,9.43
2018-06-21T22:38:28.140Z,10.17
2018-06-21T22:40:57.157Z,7.20
2018-06-21T22:43:26.197Z,9.43
2018-06-21T22:45:55.257Z,8.47
2018-06-21T22:48:24.309Z,8.90
2018-06-21T22:50:53.422Z,12.63
2018-06-21T22:53:22.533Z,10.40
2018-06-21T22:55:51.628Z,15.07
2018-06-21T22:58:20.685Z,9.83
2018-06-21T23:00:49.737Z,8.10
2018-06-21T23:03:18.802Z,7.53
2018-06-21T23:05:47.865Z,11.23
2018-06-21T23:08:16.913Z,9.47
2018-06-21T23:10:45.969Z,8.07
2018-06-21T23:13:15.011Z,12.03
2018-06-21T23:15:44.093Z,6.67
2018-06-21T23:18:19.273Z,10.83
2018-06-21T23:20:48.321Z,4.83
2018-06-21T23:23:17.479Z,8.57
2018-06-21T23:25:46.537Z,12.37
2018-06-21T23:28:15.602Z,10.67
2018-06-21T23:30:44.705Z,9.87
2018-06-21T23:33:13.762Z,8.93
2018-06-21T23:35:42.942Z,10.70
2018-06-21T23:38:12.010Z,9.97
2018-06-21T23:40:41.053Z,7.10
2018-06-21T23:43:10.109Z,8.43
2018-06-21T23:45:40.037Z,6.23
2018-06-21T23:48:09.093Z,5.60
2018-06-21T23:50:38.170Z,6.07
2018-06-21T23:53:07.229Z,8.30
2018-06-21T23:55:36.294Z,12.83
2018-06-21T23:58:05.797Z,9.33
